createdAt,value
2022-11-03T00:02:18.828Z,11.40
2022-11-03T00:04:47.286Z,11.29
2022-11-03T00:07:22.899Z,11.29
2022-11-03T00:09:51.164Z,11.25
2022-11-03T00:12:19.158Z,11.07
2022-11-03T00:14:47.197Z,10.93
2022-11-03T00:17:15.492Z,10.81
2022-11-03T00:19:44.601Z,10.74
2022-11-03T00:22:18.261Z,10.61
2022-11-03T00:24:46.722Z,10.49
2022-11-03T00:27:14.709Z,10.49
2022-11-03T00:29:42.819Z,10.47
2022-11-03T00:32:11.174Z,10.44
2022-11-03T00:34:39.277Z,10.46
2022-11-03T00:37:07.465Z,10.48
2022-11-03T00:39:35.991Z,10.47
2022-11-03T00:42:04.097Z,10.58
2022-11-03T00:44:32.214Z,10.59
2022-11-03T00:47:00.590Z,10.70
2022-11-03T00:49:28.794Z,10.69
2022-11-03T00:51:56.926Z,10.81
2022-11-03T00:54:25.264Z,11.00
2022-11-03T00:56:53.314Z,11.15
2022-11-03T00:59:58.834Z,11.11
2022-11-03T01:02:27.296Z,11.09
2022-11-03T01:05:14.455Z,11.09
2022-11-03T01:07:49.346Z,11.08
2022-11-03T01:10:17.541Z,11.01
2022-11-03T01:12:45.906Z,10.94
2022-11-03T01:15:14.027Z,10.96
2022-11-03T01:17:42.214Z,10.99
2022-11-03T01:20:11.020Z,10.99
2022-11-03T01:22:39.145Z,10.96
2022-11-03T01:25:07.579Z,10.85
2022-11-03T01:27:36.056Z,10.79
2022-11-03T01:30:04.417Z,10.68
2022-11-03T01:32:32.678Z,10.67
2022-11-03T01:35:01.073Z,10.56
2022-11-03T01:37:29.256Z,10.53
2022-11-03T01:39:57.524Z,10.68
2022-11-03T01:42:25.811Z,10.68
2022-11-03T01:44:53.932Z,10.69
2022-11-03T01:47:29.908Z,10.81
2022-11-03T01:49:58.201Z,10.94
2022-11-03T01:52:34.018Z,11.14
2022-11-03T01:55:07.791Z,11.13
2022-11-03T01:57:50.020Z,11.01
2022-11-03T02:00:18.717Z,11.01
2022-11-03T02:02:47.645Z,10.79
2022-11-03T02:05:21.937Z,10.64
2022-11-03T02:08:13.256Z,10.18
2022-11-03T02:10:41.842Z,9.85
2022-11-03T02:13:25.670Z,9.37
2022-11-03T02:15:58.038Z,9.40
2022-11-03T02:18:32.026Z,9.48
2022-11-03T02:21:46.437Z,9.45
2022-11-03T02:24:38.640Z,9.54
2022-11-03T02:27:07.534Z,9.57
2022-11-03T02:29:35.623Z,9.50
2022-11-03T02:32:15.991Z,9.55
2022-11-03T02:34:54.160Z,9.59
2022-11-03T02:37:27.490Z,9.39
2022-11-03T02:40:02.185Z,9.29
2022-11-03T02:42:31.603Z,9.72
2022-11-03T02:45:03.895Z,10.46
2022-11-03T02:47:33.371Z,10.95
2022-11-03T02:50:07.330Z,10.29
2022-11-03T02:52:46.938Z,10.11
2022-11-03T02:55:45.980Z,10.12
2022-11-03T02:58:31.225Z,9.59
2022-11-03T03:01:27.742Z,9.70
2022-11-03T03:03:59.791Z,9.69
2022-11-03T03:06:34.081Z,9.56
2022-11-03T03:09:11.498Z,9.48
2022-11-03T03:11:44.888Z,9.44
2022-11-03T03:14:20.002Z,9.27
2022-11-03T03:16:59.370Z,9.18
2022-11-03T03:19:33.368Z,9.07
2022-11-03T03:22:09.831Z,9.05
2022-11-03T03:24:48.905Z,8.93
2022-11-03T03:27:19.980Z,8.96
2022-11-03T03:29:58.619Z,8.78
2022-11-03T03:32:31.522Z,8.71
2022-11-03T03:35:03.117Z,8.52
2022-11-03T03:37:33.527Z,8.45
2022-11-03T03:40:05.556Z,8.39
2022-11-03T03:42:36.234Z,8.41
2022-11-03T03:45:07.830Z,8.22
2022-11-03T03:47:36.516Z,7.90
2022-11-03T03:50:05.264Z,7.65
2022-11-03T03:52:34.873Z,7.80
2022-11-03T03:55:04.203Z,7.71
2022-11-03T03:57:32.832Z,7.79
2022-11-03T04:00:01.581Z,7.87
2022-11-03T04:02:29.987Z,7.81
2022-11-03T04:04:59.739Z,7.89
2022-11-03T04:07:46.512Z,7.85
2022-11-03T04:10:20.644Z,7.85
2022-11-03T04:13:08.171Z,7.58
2022-11-03T04:15:42.912Z,7.59
2022-11-03T04:18:29.880Z,7.60
2022-11-03T04:21:16.659Z,7.73
2022-11-03T04:23:44.802Z,7.69
2022-11-03T04:26:15.776Z,7.45
2022-11-03T04:28:45.049Z,7.54
2022-11-03T04:31:14.619Z,7.49
2022-11-03T04:33:43.868Z,7.42
2022-11-03T04:36:18.057Z,7.50
2022-11-03T04:38:46.944Z,7.43
2022-11-03T04:41:28.984Z,7.31
2022-11-03T04:43:57.801Z,7.30
2022-11-03T04:46:28.932Z,7.36
2022-11-03T04:49:00.668Z,7.35
2022-11-03T04:51:33.128Z,7.45
2022-11-03T04:54:07.097Z,7.55
2022-11-03T04:56:35.457Z,7.54
2022-11-03T04:59:08.173Z,7.38
2022-11-03T05:01:36.715Z,7.37
2022-11-03T05:04:11.532Z,7.20
2022-11-03T05:06:41.121Z,7.19
2022-11-03T05:09:23.163Z,7.19
2022-11-03T05:11:51.446Z,7.17
2022-11-03T05:14:23.148Z,6.48
2022-11-03T05:16:55.555Z,6.29
2022-11-03T05:19:34.010Z,6.31
2022-11-03T05:22:03.837Z,6.56
2022-11-03T05:24:33.505Z,6.71
2022-11-03T05:27:01.693Z,6.88
2022-11-03T05:29:36.824Z,6.90
2022-11-03T05:32:13.710Z,6.94
2022-11-03T05:34:44.003Z,6.85
2022-11-03T05:37:26.803Z,6.90
2022-11-03T05:40:23.080Z,6.75
2022-11-03T05:42:59.341Z,6.68
2022-11-03T05:45:35.165Z,6.48
2022-11-03T05:48:16.493Z,6.45
2022-11-03T05:50:44.701Z,6.50
2022-11-03T05:53:27.747Z,6.47
2022-11-03T05:55:59.341Z,6.58
2022-11-03T05:58:35.168Z,6.73
2022-11-03T06:01:20.688Z,6.84
2022-11-03T06:03:49.449Z,6.90
2022-11-03T06:06:36.634Z,7.00
2022-11-03T06:09:19.476Z,7.12
2022-11-03T06:11:47.776Z,7.29
2022-11-03T06:14:25.016Z,7.35
2022-11-03T06:16:57.852Z,7.60
2022-11-03T06:19:31.913Z,7.82
2022-11-03T06:22:13.712Z,7.87
2022-11-03T06:24:42.353Z,7.91
2022-11-03T06:27:16.419Z,7.98
2022-11-03T06:29:52.463Z,8.06
2022-11-03T06:32:20.523Z,8.20
2022-11-03T06:34:52.487Z,8.40
2022-11-03T06:37:25.792Z,8.42
2022-11-03T06:40:00.194Z,8.58
2022-11-03T06:42:33.288Z,8.70
2022-11-03T06:45:12.145Z,8.75
2022-11-03T06:47:41.226Z,8.86
2022-11-03T06:50:44.641Z,8.94
2022-11-03T06:53:20.458Z,9.05
2022-11-03T06:55:49.682Z,9.06
2022-11-03T06:58:24.528Z,9.17
2022-11-03T07:01:00.315Z,9.33
2022-11-03T07:03:37.952Z,9.31
2022-11-03T07:06:24.755Z,9.41
2022-11-03T07:08:58.956Z,9.36
2022-11-03T07:11:35.573Z,9.43
2022-11-03T07:14:14.571Z,9.41
2022-11-03T07:16:46.949Z,9.46
2022-11-03T07:19:24.369Z,9.64
2022-11-03T07:22:01.033Z,9.82
2022-11-03T07:24:36.466Z,9.95
2022-11-03T07:27:13.552Z,9.95
2022-11-03T07:29:43.448Z,10.14
2022-11-03T07:32:18.670Z,10.33
2022-11-03T07:34:47.983Z,10.42
2022-11-03T07:37:23.717Z,10.41
2022-11-03T07:39:53.030Z,10.54
2022-11-03T07:42:27.248Z,10.64
2022-11-03T07:45:00.823Z,10.84
2022-11-03T07:47:30.129Z,11.00
2022-11-03T07:49:58.688Z,11.13
2022-11-03T07:52:27.357Z,11.05
2022-11-03T07:54:59.476Z,11.16
2022-11-03T07:57:32.257Z,11.22
2022-11-03T08:00:10.657Z,11.27
2022-11-03T08:02:48.397Z,11.13
2022-11-03T08:05:16.897Z,11.09
2022-11-03T08:07:45.017Z,11.11
2022-11-03T08:10:13.857Z,11.08
2022-11-03T08:12:42.310Z,11.11
2022-11-03T08:15:10.560Z,11.12
2022-11-03T08:17:38.702Z,11.10
2022-11-03T08:20:07.649Z,10.94
2022-11-03T08:22:35.717Z,10.84
2022-11-03T08:25:03.761Z,10.80
2022-11-03T08:27:32.229Z,10.80
2022-11-03T08:30:00.955Z,10.78
2022-11-03T08:32:29.550Z,10.82
2022-11-03T08:34:58.256Z,10.80
2022-11-03T08:37:26.398Z,10.88
2022-11-03T08:39:54.567Z,10.86
2022-11-03T08:42:22.978Z,10.81
2022-11-03T08:44:51.311Z,10.88
2022-11-03T08:47:19.355Z,10.95
2022-11-03T08:49:49.085Z,10.92
2022-11-03T08:52:17.342Z,10.94
2022-11-03T08:54:45.420Z,10.95
2022-11-03T08:57:13.844Z,10.98
2022-11-03T08:59:42.155Z,11.02
2022-11-03T09:02:10.285Z,11.05
2022-11-03T09:04:38.623Z,11.09
2022-11-03T09:07:06.957Z,11.14
2022-11-03T09:12:23.796Z,11.14
2022-11-03T09:14:51.895Z,11.24
2022-11-03T09:17:19.995Z,11.24
2022-11-03T09:19:48.430Z,11.30
2022-11-03T09:22:16.543Z,11.28
2022-11-03T09:24:44.698Z,11.26
2022-11-03T09:27:13.202Z,11.27
2022-11-03T09:30:06.975Z,11.30
2022-11-03T09:32:30.198Z,11.25
2022-11-03T09:34:58.203Z,11.29
2022-11-03T09:37:26.246Z,11.22
2022-11-03T09:39:55.712Z,11.28
2022-11-03T09:42:25.364Z,11.36
2022-11-03T09:44:55.050Z,11.34
2022-11-03T09:47:27.892Z,11.33
2022-11-03T09:49:58.036Z,11.44
2022-11-03T09:52:26.939Z,11.49
2022-11-03T09:54:59.739Z,11.49
2022-11-03T09:57:28.537Z,11.48
2022-11-03T09:59:56.638Z,11.51
2022-11-03T10:02:30.483Z,11.49
2022-11-03T10:05:05.440Z,11.47
2022-11-03T10:07:36.742Z,11.48
2022-11-03T10:10:06.111Z,11.48
2022-11-03T10:12:37.907Z,11.44
2022-11-03T10:15:13.799Z,11.34
2022-11-03T10:17:42.755Z,11.43
2022-11-03T10:20:16.418Z,11.47
2022-11-03T10:22:46.443Z,11.38
2022-11-03T10:25:30.253Z,11.40
2022-11-03T10:28:16.976Z,11.38
2022-11-03T10:31:15.734Z,11.28
2022-11-03T10:33:56.424Z,11.36
2022-11-03T10:36:27.907Z,11.26
2022-11-03T10:38:56.575Z,11.22
2022-11-03T10:41:27.222Z,11.14
2022-11-03T10:44:05.999Z,11.26
2022-11-03T10:46:49.656Z,11.30
2022-11-03T10:49:20.446Z,11.26
2022-11-03T10:51:52.678Z,11.21
2022-11-03T10:54:23.533Z,11.20
2022-11-03T10:56:53.140Z,11.16
2022-11-03T10:59:24.736Z,11.28
2022-11-03T11:01:53.274Z,11.26
2022-11-03T11:04:21.912Z,11.17
2022-11-03T11:06:50.862Z,11.22
2022-11-03T11:09:27.405Z,11.22
2022-11-03T11:11:59.947Z,11.29
2022-11-03T11:14:28.406Z,11.31
2022-11-03T11:16:58.913Z,11.24
2022-11-03T11:19:29.356Z,11.26
2022-11-03T11:22:00.809Z,11.29
2022-11-03T11:24:44.231Z,11.32
2022-11-03T11:27:47.785Z,11.23
2022-11-03T11:30:19.109Z,11.28
2022-11-03T11:32:56.531Z,11.32
2022-11-03T11:35:25.203Z,11.28
2022-11-03T11:37:54.718Z,11.34
2022-11-03T11:40:25.787Z,11.30
2022-11-03T11:43:04.918Z,11.32
2022-11-03T11:46:10.941Z,11.33
2022-11-03T11:48:39.406Z,11.38
2022-11-03T11:51:10.801Z,11.39
2022-11-03T11:53:41.717Z,11.37
2022-11-03T11:56:13.203Z,11.28
2022-11-03T11:58:42.831Z,11.37
2022-11-03T12:01:28.415Z,11.37
2022-11-03T12:04:05.710Z,11.36
2022-11-03T12:06:41.478Z,11.39
2022-11-03T12:09:12.708Z,11.28
2022-11-03T12:12:07.107Z,11.37
2022-11-03T12:14:39.849Z,11.38
2022-11-03T12:17:17.135Z,11.36
2022-11-03T12:19:53.252Z,11.36
2022-11-03T12:22:24.136Z,11.30
2022-11-03T12:24:57.637Z,11.35
2022-11-03T12:27:25.737Z,11.36
2022-11-03T12:29:56.603Z,11.41
2022-11-03T12:32:33.392Z,11.38
2022-11-03T12:35:04.551Z,11.42
2022-11-03T12:37:33.155Z,11.40
2022-11-03T12:40:01.262Z,11.40
2022-11-03T12:42:29.765Z,11.43
2022-11-03T12:44:58.115Z,11.46
2022-11-03T12:47:26.218Z,11.43
2022-11-03T12:49:54.643Z,11.47
2022-11-03T12:52:22.769Z,11.45
2022-11-03T12:54:51.117Z,11.44
2022-11-03T12:57:19.439Z,11.43
2022-11-03T12:59:47.623Z,11.44
2022-11-03T13:02:15.785Z,11.37
2022-11-03T13:04:44.174Z,11.39
2022-11-03T13:07:18.075Z,11.35
2022-11-03T13:09:48.933Z,11.37
2022-11-03T13:12:32.359Z,11.36
2022-11-03T13:15:03.761Z,11.26
2022-11-03T13:17:51.968Z,11.28
2022-11-03T13:20:23.734Z,11.30
2022-11-03T13:22:52.297Z,11.30
2022-11-03T13:25:20.910Z,11.28
2022-11-03T13:27:53.791Z,11.19
2022-11-03T13:30:23.270Z,11.19
2022-11-03T13:32:52.054Z,11.17
2022-11-03T13:35:20.211Z,11.16
2022-11-03T13:37:48.568Z,11.12
2022-11-03T13:43:05.901Z,11.09
2022-11-03T13:45:34.351Z,11.07
2022-11-03T13:50:53.763Z,10.96
2022-11-03T13:56:16.792Z,10.98
2022-11-03T14:01:37.834Z,10.90
2022-11-03T14:06:55.931Z,10.89
2022-11-03T14:09:24.872Z,10.77
2022-11-03T14:12:11.629Z,10.80
2022-11-03T14:14:40.084Z,10.82
2022-11-03T14:17:08.496Z,10.81
2022-11-03T14:19:41.702Z,10.83
2022-11-03T14:22:13.421Z,10.81
2022-11-03T14:24:41.554Z,10.84
2022-11-03T14:27:09.931Z,10.81
2022-11-03T14:29:43.483Z,10.79
2022-11-03T14:32:12.728Z,10.84
2022-11-03T14:34:41.700Z,10.76
2022-11-03T14:37:11.121Z,10.74
2022-11-03T14:39:40.166Z,10.74
2022-11-03T14:42:15.152Z,10.77
2022-11-03T14:44:50.502Z,10.70
2022-11-03T14:47:21.683Z,10.70
2022-11-03T14:49:50.047Z,10.59
2022-11-03T14:52:18.545Z,10.62
2022-11-03T14:54:46.831Z,10.66
2022-11-03T14:57:17.082Z,10.70
2022-11-03T14:59:47.994Z,10.72
2022-11-03T15:02:21.014Z,10.69
2022-11-03T15:04:52.012Z,10.74
2022-11-03T15:07:19.980Z,10.75
2022-11-03T15:09:48.227Z,10.73
2022-11-03T15:12:16.583Z,10.70
2022-11-03T15:14:44.592Z,10.71
2022-11-03T15:17:12.663Z,10.69
2022-11-03T15:19:41.099Z,10.71
2022-11-03T15:22:09.120Z,10.67
2022-11-03T15:27:28.645Z,10.64
2022-11-03T15:29:58.457Z,10.61
2022-11-03T15:32:27.013Z,10.49
2022-11-03T15:34:55.621Z,10.51
2022-11-03T15:37:26.269Z,10.39
2022-11-03T15:39:58.738Z,10.36
2022-11-03T15:42:28.827Z,10.27
2022-11-03T15:44:56.829Z,10.26
2022-11-03T15:47:24.823Z,10.28
2022-11-03T15:49:53.180Z,10.20
2022-11-03T15:52:21.279Z,10.32
2022-11-03T15:54:49.404Z,10.24
2022-11-03T15:57:17.953Z,10.25
2022-11-03T15:59:46.170Z,10.25
2022-11-03T16:02:39.751Z,10.25
2022-11-03T16:05:03.173Z,10.18
2022-11-03T16:07:31.304Z,9.98
2022-11-03T16:09:59.314Z,10.01
2022-11-03T16:12:28.531Z,9.84
2022-11-03T16:14:57.114Z,9.89
2022-11-03T16:17:25.513Z,9.88
2022-11-03T16:19:53.864Z,9.66
2022-11-03T16:22:22.169Z,9.64
2022-11-03T16:24:50.236Z,9.57
2022-11-03T16:27:18.987Z,9.58
2022-11-03T16:29:47.083Z,9.43
2022-11-03T16:32:15.223Z,9.37
2022-11-03T16:34:44.799Z,9.41
2022-11-03T16:37:12.805Z,9.32
2022-11-03T16:39:41.383Z,9.34
2022-11-03T16:42:09.949Z,9.39
2022-11-03T16:44:37.981Z,9.35
2022-11-03T16:47:06.063Z,9.40
2022-11-03T16:49:35.203Z,9.39
2022-11-03T16:52:03.449Z,9.28
2022-11-03T16:54:31.473Z,9.27
2022-11-03T16:57:00.301Z,9.32
2022-11-03T16:59:28.540Z,9.22
2022-11-03T17:01:57.038Z,9.25
2022-11-03T17:04:26.000Z,9.22
2022-11-03T17:06:54.156Z,9.27
2022-11-03T17:09:22.316Z,9.35
2022-11-03T17:11:51.062Z,9.39
2022-11-03T17:14:19.133Z,9.35
2022-11-03T17:16:48.518Z,9.33
2022-11-03T17:19:17.009Z,9.35
2022-11-03T17:21:45.128Z,9.28
2022-11-03T17:24:14.462Z,9.36
2022-11-03T17:26:52.765Z,9.42
2022-11-03T17:29:27.839Z,9.38
2022-11-03T17:31:56.389Z,9.40
2022-11-03T17:34:25.166Z,9.41
2022-11-03T17:36:53.852Z,9.44
2022-11-03T17:39:29.011Z,9.45
2022-11-03T17:42:17.756Z,9.48
2022-11-03T17:44:48.669Z,9.49
2022-11-03T17:47:19.045Z,9.51
2022-11-03T17:49:49.144Z,9.48
2022-11-03T17:52:25.086Z,9.58
2022-11-03T17:54:58.405Z,9.58
2022-11-03T17:57:27.075Z,9.66
2022-11-03T17:59:58.806Z,9.69
2022-11-03T18:02:30.813Z,9.67
2022-11-03T18:05:14.124Z,9.72
2022-11-03T18:07:45.333Z,9.72
2022-11-03T18:10:14.534Z,9.74
2022-11-03T18:13:07.311Z,9.73
2022-11-03T18:15:43.108Z,9.72
2022-11-03T18:18:19.485Z,9.73
2022-11-03T18:20:53.659Z,9.76
2022-11-03T18:23:24.423Z,9.76
2022-11-03T18:25:53.743Z,9.78
2022-11-03T18:28:22.479Z,9.81
2022-11-03T18:30:53.761Z,9.82
2022-11-03T18:33:32.592Z,9.85
2022-11-03T18:36:06.677Z,9.89
2022-11-03T18:38:36.734Z,9.85
2022-11-03T18:41:25.171Z,9.84
2022-11-03T18:43:53.833Z,9.83
2022-11-03T18:46:22.318Z,9.86
2022-11-03T18:48:51.200Z,9.89
2022-11-03T18:51:19.771Z,9.86
2022-11-03T18:53:48.973Z,9.94
2022-11-03T18:56:18.927Z,9.91
2022-11-03T18:58:50.504Z,9.94
2022-11-03T19:01:25.111Z,9.92
2022-11-03T19:03:56.290Z,9.97
2022-11-03T19:06:24.974Z,9.99
2022-11-03T19:08:59.547Z,10.02
2022-11-03T19:11:27.911Z,10.03
2022-11-03T19:13:56.511Z,10.02
2022-11-03T19:16:24.847Z,10.02
2022-11-03T19:18:53.507Z,10.02
2022-11-03T19:21:24.114Z,10.02
2022-11-03T19:23:58.144Z,10.06
2022-11-03T19:26:30.610Z,10.06
2022-11-03T19:29:14.519Z,10.15
2022-11-03T19:31:46.845Z,10.17
2022-11-03T19:34:22.496Z,10.15
2022-11-03T19:36:52.269Z,10.17
2022-11-03T19:39:27.407Z,10.20
2022-11-03T19:42:15.896Z,10.20
2022-11-03T19:44:44.383Z,10.20
2022-11-03T19:47:19.329Z,10.18
2022-11-03T19:49:51.437Z,10.22
2022-11-03T19:52:26.645Z,10.27
2022-11-03T19:54:55.677Z,10.28
2022-11-03T19:57:24.362Z,10.27
2022-11-03T19:59:58.725Z,10.19
2022-11-03T20:02:28.222Z,10.27
2022-11-03T20:04:57.202Z,10.29
2022-11-03T20:07:31.271Z,10.26
2022-11-03T20:10:01.824Z,10.29
2022-11-03T20:12:31.106Z,10.29
2022-11-03T20:14:59.439Z,10.28
2022-11-03T20:17:27.896Z,10.32
2022-11-03T20:19:57.985Z,10.32
2022-11-03T20:22:30.049Z,10.35
2022-11-03T20:25:03.270Z,10.31
2022-11-03T20:27:32.487Z,10.32
2022-11-03T20:30:01.598Z,10.32
2022-11-03T20:32:30.073Z,10.33
2022-11-03T20:34:58.616Z,10.34
2022-11-03T20:37:27.404Z,10.31
2022-11-03T20:39:58.734Z,10.34
2022-11-03T20:42:27.395Z,10.27
2022-11-03T20:44:55.851Z,10.32
2022-11-03T20:47:24.114Z,10.30
2022-11-03T20:49:52.726Z,10.31
2022-11-03T20:52:20.978Z,10.28
2022-11-03T20:54:51.066Z,10.31
2022-11-03T20:57:19.496Z,10.33
2022-11-03T20:59:48.215Z,10.26
2022-11-03T21:02:16.911Z,10.28
2022-11-03T21:04:45.508Z,10.29
2022-11-03T21:07:14.266Z,10.32
2022-11-03T21:09:42.737Z,10.32
2022-11-03T21:12:13.651Z,10.32
2022-11-03T21:15:05.203Z,10.31
2022-11-03T21:17:52.170Z,10.35
2022-11-03T21:20:20.493Z,10.34
2022-11-03T21:22:56.416Z,10.35
2022-11-03T21:25:25.211Z,10.31
2022-11-03T21:27:54.806Z,10.29
2022-11-03T21:30:23.196Z,10.27
2022-11-03T21:32:51.415Z,10.32
2022-11-03T21:35:21.555Z,10.32
2022-11-03T21:37:49.767Z,10.34
2022-11-03T21:40:18.040Z,10.32
2022-11-03T21:43:05.360Z,10.31
2022-11-03T21:45:33.544Z,10.35
2022-11-03T21:48:21.098Z,10.27
2022-11-03T21:50:49.420Z,10.33
2022-11-03T21:53:18.053Z,10.33
2022-11-03T21:55:52.996Z,10.36
2022-11-03T21:58:21.796Z,10.38
2022-11-03T22:00:50.184Z,10.41
2022-11-03T22:03:18.569Z,10.40
2022-11-03T22:05:46.958Z,10.42
2022-11-03T22:08:15.172Z,10.42
2022-11-03T22:10:43.500Z,10.41
2022-11-03T22:13:12.296Z,10.36
2022-11-03T22:15:59.436Z,10.38
2022-11-03T22:18:27.965Z,10.40
2022-11-03T22:21:16.727Z,10.35
2022-11-03T22:24:04.116Z,10.34
2022-11-03T22:26:51.001Z,10.30
2022-11-03T22:29:38.559Z,10.32
2022-11-03T22:32:16.017Z,10.30
2022-11-03T22:35:03.303Z,10.31
2022-11-03T22:40:17.789Z,10.19
2022-11-03T22:43:04.860Z,10.26
2022-11-03T22:45:51.653Z,10.20
2022-11-03T22:48:20.098Z,10.19
2022-11-03T22:50:55.078Z,10.18
2022-11-03T22:53:41.850Z,10.23
2022-11-03T22:56:10.437Z,10.22
2022-11-03T22:58:38.867Z,10.28
2022-11-03T23:01:09.570Z,10.31
2022-11-03T23:03:39.741Z,10.27
2022-11-03T23:06:10.385Z,10.28
2022-11-03T23:08:40.372Z,10.30
2022-11-03T23:11:20.661Z,10.27
2022-11-03T23:13:57.850Z,10.29
2022-11-03T23:16:28.656Z,10.30
2022-11-03T23:19:17.083Z,10.29
2022-11-03T23:21:46.979Z,10.33
2022-11-03T23:24:34.058Z,10.32
2022-11-03T23:27:03.165Z,10.29
2022-11-03T23:29:32.182Z,10.29
2022-11-03T23:32:01.108Z,10.28
2022-11-03T23:34:29.510Z,10.26
2022-11-03T23:36:58.609Z,10.24
2022-11-03T23:39:26.704Z,10.18
2022-11-03T23:41:54.862Z,10.19
2022-11-03T23:44:23.552Z,10.11
2022-11-03T23:47:10.373Z,10.13
2022-11-03T23:49:38.814Z,10.19
2022-11-03T23:52:06.855Z,10.18
2022-11-03T23:54:35.282Z,10.16
2022-11-03T23:57:22.214Z,10.12
2022-11-03T23:59:50.170Z,10.09
